Time;durP1;ratioP1;P1;durP2;ratioP2;P2;SDS_P1;SDS_P2;PMS_P1;PMS_P2;Temp;Humidity;BMP_temperature;BMP_pressure;BME280_temperature;BME280_humidity;BME280_pressure;Samples;Min_cycle;Max_cycle;Signal;HPM_P1;HPM_P2
2022/03/03 00:00:13;;;;;;;60.13;33.95;;;;;;;;;;4989620;28;20053;-94
2022/03/03 00:02:42;;;;;;;62.10;33.30;;;;;;;;;;4985454;28;20110;-94
2022/03/03 00:05:08;;;;;;;54.78;32.90;;;;;;;;;;4967800;28;20053;-94
2022/03/03 00:07:34;;;;;;;62.42;36.88;;;;;;;;;;4981853;28;20375;-93
2022/03/03 00:10:01;;;;;;;60.58;34.22;;;;;;;;;;4980488;28;20078;-92
2022/03/03 00:12:27;;;;;;;59.70;33.63;;;;;;;;;;4964954;28;20048;-93
2022/03/03 00:14:53;;;;;;;62.15;34.75;;;;;;;;;;4981956;28;20038;-93
2022/03/03 00:17:21;;;;;;;60.70;33.88;;;;;;;;;;4983826;28;20057;-94
2022/03/03 00:19:47;;;;;;;58.13;32.30;;;;;;;;;;4982825;28;20100;-93
2022/03/03 00:22:13;;;;;;;55.00;33.58;;;;;;;;;;4998243;28;20063;-93
2022/03/03 00:24:39;;;;;;;63.90;35.25;;;;;;;;;;4980149;28;20402;-93
2022/03/03 00:27:06;;;;;;;59.67;33.88;;;;;;;;;;4980231;28;20130;-94
2022/03/03 00:29:32;;;;;;;62.08;32.55;;;;;;;;;;4980915;28;20446;-94
2022/03/03 00:31:58;;;;;;;61.97;34.28;;;;;;;;;;4980694;28;20105;-92
2022/03/03 00:34:25;;;;;;;61.90;33.08;;;;;;;;;;4980595;28;20046;-93
2022/03/03 00:36:51;;;;;;;61.25;32.47;;;;;;;;;;4980378;28;20489;-93
2022/03/03 00:39:17;;;;;;;58.88;32.00;;;;;;;;;;4980365;28;20039;-94
2022/03/03 00:41:45;;;;;;;61.60;33.25;;;;;;;;;;4987335;28;20046;-94
2022/03/03 00:44:11;;;;;;;56.80;32.47;;;;;;;;;;5002427;28;20081;-94
2022/03/03 00:46:38;;;;;;;57.00;32.63;;;;;;;;;;4981650;28;20140;-96
2022/03/03 00:49:04;;;;;;;69.43;34.70;;;;;;;;;;4966059;28;20046;-93
2022/03/03 00:51:30;;;;;;;63.72;33.95;;;;;;;;;;4981855;28;20082;-95
2022/03/03 00:53:56;;;;;;;60.33;33.42;;;;;;;;;;4984356;28;20478;-93
2022/03/03 00:56:22;;;;;;;59.40;33.22;;;;;;;;;;4981851;28;20073;-94
2022/03/03 00:58:49;;;;;;;57.22;34.28;;;;;;;;;;4981387;28;20042;-93
2022/03/03 01:01:15;;;;;;;61.20;33.20;;;;;;;;;;4980820;28;20050;-93
2022/03/03 01:03:42;;;;;;;61.72;34.30;;;;;;;;;;4998835;28;20038;-93
2022/03/03 01:06:09;;;;;;;61.53;34.58;;;;;;;;;;4980648;28;20493;-93
2022/03/03 01:08:35;;;;;;;63.58;33.30;;;;;;;;;;4979785;28;20046;-92
2022/03/03 01:11:01;;;;;;;57.25;32.58;;;;;;;;;;4979338;28;20588;-94
2022/03/03 01:13:27;;;;;;;56.38;32.22;;;;;;;;;;4979527;28;20046;-93
2022/03/03 01:15:53;;;;;;;58.92;30.70;;;;;;;;;;4979349;28;20109;-92
2022/03/03 01:18:20;;;;;;;58.47;32.20;;;;;;;;;;4979818;28;20078;-91
2022/03/03 01:20:47;;;;;;;57.33;31.50;;;;;;;;;;4963021;28;20051;-96
2022/03/03 01:23:13;;;;;;;55.78;32.28;;;;;;;;;;4979560;28;20045;-94
2022/03/03 01:25:39;;;;;;;55.08;31.38;;;;;;;;;;4979413;28;20438;-93
2022/03/03 01:28:05;;;;;;;56.38;32.03;;;;;;;;;;4979436;28;20133;-94
2022/03/03 01:30:31;;;;;;;57.05;31.80;;;;;;;;;;4963147;28;20074;-93
2022/03/03 01:32:57;;;;;;;54.00;32.20;;;;;;;;;;4979298;28;20038;-93
2022/03/03 01:35:24;;;;;;;60.35;32.63;;;;;;;;;;4979010;28;20042;-91
2022/03/03 01:37:50;;;;;;;59.80;32.58;;;;;;;;;;4978886;28;20121;-93
2022/03/03 01:40:16;;;;;;;55.42;31.58;;;;;;;;;;4978615;28;20050;-92
2022/03/03 01:42:42;;;;;;;55.03;32.10;;;;;;;;;;4979285;28;20040;-93
2022/03/03 01:45:08;;;;;;;55.78;32.05;;;;;;;;;;4978745;28;20070;-93
2022/03/03 01:47:34;;;;;;;57.85;31.98;;;;;;;;;;4962868;28;20034;-91
2022/03/03 01:50:01;;;;;;;50.72;29.60;;;;;;;;;;4978780;28;20034;-93
2022/03/03 01:52:27;;;;;;;51.55;28.75;;;;;;;;;;4979216;28;20496;-94
2022/03/03 01:54:53;;;;;;;52.75;30.25;;;;;;;;;;4979003;28;20046;-93
2022/03/03 01:57:22;;;;;;;53.53;30.63;;;;;;;;;;4979937;28;20050;-92
2022/03/03 01:59:48;;;;;;;53.03;31.08;;;;;;;;;;4964126;28;20177;-95
2022/03/03 02:02:14;;;;;;;51.58;31.33;;;;;;;;;;4964836;28;20053;-93
2022/03/03 02:04:41;;;;;;;52.90;30.50;;;;;;;;;;4979299;28;20038;-94
2022/03/03 02:07:09;;;;;;;58.97;33.20;;;;;;;;;;4979332;28;20046;-94
2022/03/03 02:09:35;;;;;;;53.28;30.25;;;;;;;;;;4963812;28;20042;-92
2022/03/03 02:12:01;;;;;;;52.40;30.02;;;;;;;;;;4978668;28;20050;-95
2022/03/03 02:14:27;;;;;;;57.72;32.50;;;;;;;;;;4979170;28;20046;-93
2022/03/03 02:16:53;;;;;;;51.75;30.55;;;;;;;;;;4978352;28;20419;-94
2022/03/03 02:19:20;;;;;;;52.47;29.42;;;;;;;;;;4978784;28;20038;-93
2022/03/03 02:21:53;;;;;;;51.92;30.55;;;;;;;;;;4962990;28;20143;-93
2022/03/03 02:24:20;;;;;;;56.25;31.98;;;;;;;;;;4980677;28;20035;-93
2022/03/03 02:26:47;;;;;;;59.38;30.33;;;;;;;;;;4963170;28;20088;-94
2022/03/03 02:29:13;;;;;;;47.40;27.70;;;;;;;;;;4979297;28;20039;-94
2022/03/03 02:31:40;;;;;;;49.15;28.40;;;;;;;;;;4979227;28;20054;-92
2022/03/03 02:34:06;;;;;;;52.72;30.60;;;;;;;;;;4979544;28;20128;-93
2022/03/03 02:36:32;;;;;;;53.40;31.30;;;;;;;;;;4961737;28;20050;-94
2022/03/03 02:39:02;;;;;;;57.55;31.90;;;;;;;;;;4979322;28;20050;-93
2022/03/03 02:41:28;;;;;;;56.78;32.25;;;;;;;;;;4977914;28;20500;-93
2022/03/03 02:43:55;;;;;;;61.65;33.42;;;;;;;;;;4977722;28;20516;-92
2022/03/03 02:46:21;;;;;;;54.78;31.08;;;;;;;;;;4977968;28;20520;-92
2022/03/03 02:48:47;;;;;;;50.67;29.23;;;;;;;;;;4979797;28;20042;-96
2022/03/03 02:51:13;;;;;;;60.75;32.33;;;;;;;;;;4980019;28;20046;-92
2022/03/03 02:53:39;;;;;;;57.50;32.17;;;;;;;;;;4979025;28;20042;-92
2022/03/03 02:56:06;;;;;;;53.20;29.20;;;;;;;;;;4962352;28;20046;-93
2022/03/03 02:58:32;;;;;;;53.00;28.80;;;;;;;;;;4978667;28;20162;-93
2022/03/03 03:00:59;;;;;;;54.10;30.90;;;;;;;;;;4977871;28;20046;-94
2022/03/03 03:03:25;;;;;;;52.40;30.77;;;;;;;;;;4977785;28;20042;-93
2022/03/03 03:05:51;;;;;;;54.25;31.88;;;;;;;;;;4977652;28;20042;-94
2022/03/03 03:08:17;;;;;;;54.95;32.13;;;;;;;;;;4977972;28;20042;-92
2022/03/03 03:10:44;;;;;;;58.30;31.70;;;;;;;;;;4977644;28;20059;-95
2022/03/03 03:13:14;;;;;;;51.90;30.20;;;;;;;;;;4962457;28;20089;-93
2022/03/03 03:15:41;;;;;;;57.00;31.45;;;;;;;;;;4977835;28;20042;-96
2022/03/03 03:18:12;;;;;;;55.92;32.80;;;;;;;;;;4978638;28;20038;-94
2022/03/03 03:20:39;;;;;;;52.78;29.73;;;;;;;;;;4977935;28;20038;-91
2022/03/03 03:23:05;;;;;;;54.22;31.05;;;;;;;;;;4978044;28;20039;-94
2022/03/03 03:25:31;;;;;;;60.90;31.45;;;;;;;;;;4946317;28;20042;-94
2022/03/03 03:27:57;;;;;;;60.83;33.58;;;;;;;;;;4961772;28;20085;-93
2022/03/03 03:30:23;;;;;;;53.58;31.38;;;;;;;;;;4961656;28;20139;-92
2022/03/03 03:32:49;;;;;;;53.40;30.35;;;;;;;;;;4977514;28;20301;-93
2022/03/03 03:35:15;;;;;;;58.90;32.22;;;;;;;;;;4995488;28;20169;-94
2022/03/03 03:38:31;;;;;;;58.13;32.45;;;;;;;;;;4982026;28;20046;-92
2022/03/03 03:40:36;;;;;;;55.47;30.83;;;;;;;;;;4975525;28;20046;-92
2022/03/03 03:43:02;;;;;;;56.47;30.90;;;;;;;;;;4977287;28;20125;-92
2022/03/03 03:45:28;;;;;;;62.53;31.38;;;;;;;;;;4977463;28;20389;-93
2022/03/03 03:47:54;;;;;;;56.78;31.20;;;;;;;;;;4977674;28;20034;-92
2022/03/03 03:50:20;;;;;;;57.13;30.88;;;;;;;;;;4977445;28;20038;-94
2022/03/03 03:52:46;;;;;;;57.58;31.38;;;;;;;;;;4977225;28;20126;-93
2022/03/03 03:55:12;;;;;;;58.17;31.58;;;;;;;;;;4961007;28;20121;-92
2022/03/03 03:57:38;;;;;;;53.70;30.67;;;;;;;;;;4960921;28;20034;-95
2022/03/03 04:00:06;;;;;;;57.25;30.73;;;;;;;;;;4961035;28;20129;-95
2022/03/03 04:02:33;;;;;;;53.97;28.48;;;;;;;;;;4977152;28;20161;-93
2022/03/03 04:04:59;;;;;;;51.85;30.58;;;;;;;;;;4977210;28;20042;-94
2022/03/03 04:07:25;;;;;;;54.78;30.48;;;;;;;;;;4976708;28;20045;-93
2022/03/03 04:09:51;;;;;;;50.13;30.85;;;;;;;;;;4976772;28;20513;-93
2022/03/03 04:12:17;;;;;;;53.90;30.58;;;;;;;;;;4976998;28;20057;-93
2022/03/03 04:14:43;;;;;;;54.67;30.10;;;;;;;;;;4961357;28;20046;-92
2022/03/03 04:17:09;;;;;;;55.33;30.23;;;;;;;;;;4978410;28;20058;-94
2022/03/03 04:19:35;;;;;;;53.38;29.40;;;;;;;;;;4978308;28;20046;-95
2022/03/03 04:22:01;;;;;;;55.58;31.42;;;;;;;;;;4978907;28;20129;-93
2022/03/03 04:24:27;;;;;;;54.38;30.75;;;;;;;;;;4978252;28;20041;-94
2022/03/03 04:26:54;;;;;;;55.58;30.75;;;;;;;;;;4960782;28;20042;-94
2022/03/03 04:29:22;;;;;;;57.80;30.00;;;;;;;;;;4980780;28;20034;-93
2022/03/03 04:31:50;;;;;;;51.72;28.95;;;;;;;;;;4980487;28;20398;-94
2022/03/03 04:34:16;;;;;;;47.95;27.70;;;;;;;;;;4981093;28;20053;-93
2022/03/03 04:36:42;;;;;;;49.45;28.55;;;;;;;;;;4980405;28;20401;-93
2022/03/03 04:39:08;;;;;;;50.20;27.55;;;;;;;;;;4980169;28;20042;-93
2022/03/03 04:41:34;;;;;;;47.33;27.92;;;;;;;;;;4980634;28;20042;-93
2022/03/03 04:44:00;;;;;;;49.83;27.63;;;;;;;;;;4980014;28;20544;-93
2022/03/03 04:46:27;;;;;;;45.72;27.85;;;;;;;;;;4980551;28;20045;-93
2022/03/03 04:48:59;;;;;;;46.22;27.23;;;;;;;;;;4964071;28;20103;-94
2022/03/03 04:51:25;;;;;;;49.28;26.80;;;;;;;;;;4965932;28;20046;-92
2022/03/03 04:53:51;;;;;;;44.72;26.77;;;;;;;;;;4980981;28;20181;-93
2022/03/03 04:56:17;;;;;;;52.25;28.00;;;;;;;;;;4964421;28;20058;-93
2022/03/03 04:58:44;;;;;;;46.10;26.90;;;;;;;;;;4979943;28;20071;-94
2022/03/03 05:01:11;;;;;;;47.40;29.55;;;;;;;;;;4964673;28;20348;-94
2022/03/03 05:03:37;;;;;;;49.20;27.33;;;;;;;;;;4980693;28;20038;-92
2022/03/03 05:06:03;;;;;;;47.88;27.50;;;;;;;;;;4980243;28;20461;-96
2022/03/03 05:08:29;;;;;;;52.25;28.10;;;;;;;;;;4963848;28;20077;-93
2022/03/03 05:10:55;;;;;;;50.85;27.40;;;;;;;;;;4980077;28;20058;-95
2022/03/03 05:13:21;;;;;;;50.45;28.63;;;;;;;;;;4979519;28;20034;-95
2022/03/03 05:15:48;;;;;;;53.83;28.95;;;;;;;;;;4979615;28;20447;-94
2022/03/03 05:18:14;;;;;;;49.00;28.42;;;;;;;;;;4979334;28;20565;-93
2022/03/03 05:21:08;;;;;;;49.50;28.88;;;;;;;;;;4991917;28;20042;-92
2022/03/03 05:23:29;;;;;;;51.33;28.13;;;;;;;;;;4993741;28;20514;-95
2022/03/03 05:25:55;;;;;;;50.70;28.65;;;;;;;;;;4979140;28;20067;-93
2022/03/03 05:28:21;;;;;;;50.97;29.25;;;;;;;;;;4963011;28;20053;-94
2022/03/03 05:30:47;;;;;;;52.05;28.65;;;;;;;;;;4980560;28;20041;-93
2022/03/03 05:33:13;;;;;;;53.05;29.75;;;;;;;;;;4980319;28;20141;-94
2022/03/03 05:35:40;;;;;;;52.85;29.45;;;;;;;;;;4963901;28;20046;-95
2022/03/03 05:38:07;;;;;;;50.13;30.08;;;;;;;;;;4979965;28;20478;-94
2022/03/03 05:40:33;;;;;;;51.95;29.50;;;;;;;;;;4978542;28;20069;-95
2022/03/03 05:42:59;;;;;;;50.38;28.40;;;;;;;;;;4979306;28;20042;-91
2022/03/03 05:45:25;;;;;;;51.88;29.48;;;;;;;;;;4978943;28;20049;-92
2022/03/03 05:47:54;;;;;;;50.95;29.33;;;;;;;;;;4978805;28;20045;-94
2022/03/03 05:50:20;;;;;;;50.97;28.38;;;;;;;;;;4962982;28;20042;-93
2022/03/03 05:52:46;;;;;;;48.22;29.15;;;;;;;;;;4978899;28;20234;-95
2022/03/03 05:55:12;;;;;;;50.90;28.17;;;;;;;;;;4979172;28;20250;-95
2022/03/03 05:57:41;;;;;;;47.85;29.15;;;;;;;;;;4979441;28;20077;-93
2022/03/03 06:00:15;;;;;;;50.97;29.05;;;;;;;;;;4963096;28;20046;-92
2022/03/03 06:02:51;;;;;;;49.78;29.30;;;;;;;;;;4978823;28;20505;-95
2022/03/03 06:05:37;;;;;;;45.65;28.60;;;;;;;;;;4962456;28;20034;-93
2022/03/03 06:08:04;;;;;;;47.53;28.75;;;;;;;;;;4978484;28;20125;-92
2022/03/03 06:10:32;;;;;;;51.63;28.83;;;;;;;;;;4995876;28;20494;-93
2022/03/03 06:13:12;;;;;;;47.03;27.60;;;;;;;;;;4963079;28;20058;-94
2022/03/03 06:15:38;;;;;;;46.47;27.25;;;;;;;;;;4978707;28;20460;-93
2022/03/03 06:18:04;;;;;;;52.55;30.13;;;;;;;;;;4979112;28;20038;-94
2022/03/03 06:20:34;;;;;;;45.75;28.27;;;;;;;;;;4978840;28;20129;-92
2022/03/03 06:23:00;;;;;;;47.20;27.35;;;;;;;;;;4962295;28;20034;-93
2022/03/03 06:28:50;;;;;;;48.65;28.50;;;;;;;;;;4989744;28;20801;-94
2022/03/03 06:31:16;;;;;;;50.08;26.88;;;;;;;;;;4978003;28;20046;-91
2022/03/03 06:33:43;;;;;;;60.17;31.10;;;;;;;;;;4978398;28;20409;-92
2022/03/03 06:36:09;;;;;;;51.03;30.05;;;;;;;;;;4977766;28;20058;-93
2022/03/03 06:38:35;;;;;;;50.88;29.10;;;;;;;;;;4962193;28;20102;-94
2022/03/03 06:41:02;;;;;;;49.67;27.95;;;;;;;;;;4977687;28;20060;-94
2022/03/03 06:43:29;;;;;;;54.08;29.92;;;;;;;;;;4977940;28;20052;-94
2022/03/03 06:45:56;;;;;;;53.35;29.50;;;;;;;;;;4978086;28;20046;-95
2022/03/03 06:48:22;;;;;;;53.90;30.80;;;;;;;;;;4977911;28;20042;-94
2022/03/03 06:50:50;;;;;;;47.65;28.67;;;;;;;;;;4978045;28;20050;-94
2022/03/03 06:53:19;;;;;;;54.33;30.00;;;;;;;;;;4961902;28;20042;-94
2022/03/03 06:55:48;;;;;;;52.47;31.27;;;;;;;;;;4977755;28;20100;-94
2022/03/03 06:58:15;;;;;;;52.20;28.92;;;;;;;;;;4977490;28;20042;-94
2022/03/03 07:00:41;;;;;;;51.13;29.15;;;;;;;;;;4961418;28;20050;-92
2022/03/03 07:03:07;;;;;;;49.10;29.92;;;;;;;;;;4978060;28;20596;-95
2022/03/03 07:05:34;;;;;;;54.42;31.63;;;;;;;;;;4961366;28;20035;-95
2022/03/03 07:08:00;;;;;;;52.40;31.20;;;;;;;;;;4977566;28;20053;-92
2022/03/03 07:10:26;;;;;;;50.80;30.52;;;;;;;;;;4977274;28;20054;-93
2022/03/03 07:12:53;;;;;;;49.72;29.27;;;;;;;;;;4978204;28;20402;-92
2022/03/03 07:15:19;;;;;;;58.63;32.40;;;;;;;;;;4977813;28;20105;-92
2022/03/03 07:17:47;;;;;;;55.47;30.48;;;;;;;;;;4981938;28;20080;-94
2022/03/03 07:20:17;;;;;;;57.42;31.55;;;;;;;;;;4988245;28;20437;-93
2022/03/03 07:23:00;;;;;;;53.65;30.85;;;;;;;;;;4977498;28;20552;-93
2022/03/03 07:25:30;;;;;;;55.45;31.23;;;;;;;;;;4977543;28;20039;-94
2022/03/03 07:27:57;;;;;;;53.67;30.77;;;;;;;;;;4978065;28;20038;-94
2022/03/03 07:31:23;;;;;;;;;;;;;;;;;;;;;
2022/03/03 07:34:06;;;;;;;59.63;31.38;;;;;;;;;;4961624;28;20042;-94
2022/03/03 07:40:02;;;;;;;51.72;31.08;;;;;;;;;;5066134;23;20070;-94
2022/03/03 07:42:31;;;;;;;51.70;29.75;;;;;;;;;;5472351;23;20118;-93
2022/03/03 07:51:01;;;;;;;60.78;32.22;;;;;;;;;;4982662;28;20160;-92
2022/03/03 07:53:27;;;;;;;56.53;31.10;;;;;;;;;;4976181;28;20041;-93
2022/03/03 07:55:59;;;;;;;56.50;30.85;;;;;;;;;;4973364;28;20062;-94
2022/03/03 07:58:40;;;;;;;49.72;29.30;;;;;;;;;;4965421;28;20078;-94
2022/03/03 08:01:08;;;;;;;55.80;29.98;;;;;;;;;;4977463;28;20130;-93
2022/03/03 08:03:44;;;;;;;53.10;29.60;;;;;;;;;;4958506;28;20042;-93
2022/03/03 08:06:10;;;;;;;47.90;29.33;;;;;;;;;;4983793;28;20039;-92
2022/03/03 08:11:24;;;;;;;54.20;30.33;;;;;;;;;;4960006;28;20214;-92
2022/03/03 08:13:52;;;;;;;53.45;30.08;;;;;;;;;;4966925;28;20047;-94
2022/03/03 08:16:19;;;;;;;51.70;29.95;;;;;;;;;;4964797;28;20074;-94
2022/03/03 08:18:46;;;;;;;50.42;29.63;;;;;;;;;;4966129;28;20038;-93
2022/03/03 08:21:13;;;;;;;51.90;29.30;;;;;;;;;;4960187;28;20043;-90
2022/03/03 08:23:40;;;;;;;50.47;28.92;;;;;;;;;;4966562;28;20038;-93
2022/03/03 08:26:06;;;;;;;51.83;29.90;;;;;;;;;;4959029;28;20129;-94
2022/03/03 08:28:32;;;;;;;47.85;29.95;;;;;;;;;;4972505;28;20046;-95
2022/03/03 08:31:00;;;;;;;49.45;29.73;;;;;;;;;;4946412;28;20429;-94
2022/03/03 08:34:12;;;;;;;51.20;28.92;;;;;;;;;;4976630;28;20462;-93
2022/03/03 08:36:48;;;;;;;52.15;29.23;;;;;;;;;;4953172;28;20096;-94
2022/03/03 08:39:18;;;;;;;51.72;30.08;;;;;;;;;;4952343;28;20201;-96
2022/03/03 08:41:45;;;;;;;47.55;28.85;;;;;;;;;;4963999;28;20513;-94
2022/03/03 08:44:12;;;;;;;48.50;28.50;;;;;;;;;;4949852;28;20050;-93
2022/03/03 08:46:39;;;;;;;44.17;27.85;;;;;;;;;;4967803;28;20057;-94
2022/03/03 08:49:16;;;;;;;41.53;27.60;;;;;;;;;;4967976;28;20130;-93
2022/03/03 08:51:44;;;;;;;43.00;26.80;;;;;;;;;;4961671;28;20069;-94
2022/03/03 08:54:11;;;;;;;43.72;27.42;;;;;;;;;;4968195;28;20083;-92
2022/03/03 08:56:40;;;;;;;41.42;27.70;;;;;;;;;;4978142;28;20097;-94
2022/03/03 08:59:06;;;;;;;40.88;27.52;;;;;;;;;;4981907;28;20464;-92
2022/03/03 09:01:32;;;;;;;42.55;27.50;;;;;;;;;;4979442;28;20130;-92
2022/03/03 09:03:58;;;;;;;38.03;27.30;;;;;;;;;;4979816;28;20129;-91
2022/03/03 09:06:25;;;;;;;37.55;26.10;;;;;;;;;;4977091;28;20038;-94
2022/03/03 09:08:51;;;;;;;36.25;25.48;;;;;;;;;;4973823;28;20046;-93
2022/03/03 09:11:18;;;;;;;38.15;26.50;;;;;;;;;;4975808;28;20049;-93
2022/03/03 09:13:44;;;;;;;36.63;26.40;;;;;;;;;;4978547;28;20057;-92
2022/03/03 09:16:11;;;;;;;38.97;26.63;;;;;;;;;;4963139;28;20034;-94
2022/03/03 09:18:37;;;;;;;37.30;26.73;;;;;;;;;;4979612;28;20548;-94
2022/03/03 09:21:03;;;;;;;38.60;26.60;;;;;;;;;;4981246;28;20046;-93
2022/03/03 09:23:29;;;;;;;37.17;25.35;;;;;;;;;;4981849;28;20054;-89
2022/03/03 09:25:55;;;;;;;38.00;26.17;;;;;;;;;;4993445;28;20042;-92
2022/03/03 09:28:24;;;;;;;37.20;25.20;;;;;;;;;;4979533;28;20035;-95
2022/03/03 09:30:51;;;;;;;37.15;25.63;;;;;;;;;;4981093;28;20042;-91
2022/03/03 09:33:17;;;;;;;37.15;25.20;;;;;;;;;;4970286;28;20054;-92
2022/03/03 09:40:58;;;;;;;37.53;24.50;;;;;;;;;;3661161;23;20042;-94
2022/03/03 09:44:16;;;;;;;39.75;26.00;;;;;;;;;;5005784;28;20054;-93
2022/03/03 09:47:20;;;;;;;38.75;25.50;;;;;;;;;;4988403;28;20042;-94
2022/03/03 09:49:27;;;;;;;35.08;24.58;;;;;;;;;;4972223;28;20042;-96
2022/03/03 09:51:53;;;;;;;35.40;23.85;;;;;;;;;;4979839;28;20078;-92
2022/03/03 09:54:19;;;;;;;36.55;23.85;;;;;;;;;;4980762;28;20042;-92
2022/03/03 09:56:45;;;;;;;32.67;22.30;;;;;;;;;;4964762;28;20046;-93
2022/03/03 09:59:12;;;;;;;32.42;22.55;;;;;;;;;;4978825;28;20504;-94
2022/03/03 10:01:38;;;;;;;31.85;21.42;;;;;;;;;;4981023;28;20045;-90
2022/03/03 10:04:15;;;;;;;39.72;22.83;;;;;;;;;;4963353;28;20046;-93
2022/03/03 10:06:42;;;;;;;37.78;24.58;;;;;;;;;;4962905;28;20045;-95
2022/03/03 10:09:09;;;;;;;35.38;22.00;;;;;;;;;;4962593;28;20050;-95
2022/03/03 10:15:03;;;;;;;35.40;22.98;;;;;;;;;;4913304;29;20062;-93
2022/03/03 10:29:22;;;;;;;30.88;20.10;;;;;;;;;;5365977;22;20034;-95
2022/03/03 10:31:49;;;;;;;31.05;21.00;;;;;;;;;;4961226;28;20490;-95
2022/03/03 10:34:38;;;;;;;31.98;21.95;;;;;;;;;;4961722;28;20501;-93
2022/03/03 10:37:09;;;;;;;31.73;21.08;;;;;;;;;;4962116;28;20035;-93
2022/03/03 10:39:39;;;;;;;30.75;20.48;;;;;;;;;;4978828;28;20053;-94
2022/03/03 10:42:12;;;;;;;29.33;19.75;;;;;;;;;;4978971;28;20042;-92
2022/03/03 10:44:38;;;;;;;30.52;19.50;;;;;;;;;;4976829;28;20486;-91
2022/03/03 10:47:11;;;;;;;30.00;20.35;;;;;;;;;;4976633;28;20038;-92
2022/03/03 10:49:39;;;;;;;28.33;19.02;;;;;;;;;;4977294;28;20045;-92
2022/03/03 10:52:11;;;;;;;30.38;19.77;;;;;;;;;;4960930;28;20042;-94
2022/03/03 10:55:10;;;;;;;33.08;22.08;;;;;;;;;;4965571;28;20061;-96
2022/03/03 10:57:39;;;;;;;33.17;21.23;;;;;;;;;;4988693;28;20062;-92
2022/03/03 11:00:10;;;;;;;28.35;19.70;;;;;;;;;;5235727;22;20058;-93
2022/03/03 11:02:44;;;;;;;28.75;19.40;;;;;;;;;;4965958;28;20058;-94
2022/03/03 11:05:13;;;;;;;29.17;19.45;;;;;;;;;;4962056;28;20039;-93
2022/03/03 11:07:59;;;;;;;27.05;19.50;;;;;;;;;;5908863;23;20045;-95
2022/03/03 11:10:35;;;;;;;26.73;19.15;;;;;;;;;;5030086;28;20046;-94
2022/03/03 11:13:17;;;;;;;;;;;;;;;;;;;;;
2022/03/03 11:15:49;;;;;;;29.75;19.30;;;;;;;;;;4961689;28;20050;-93
2022/03/03 11:18:19;;;;;;;28.95;19.50;;;;;;;;;;4959930;28;20042;-96
2022/03/03 11:20:48;;;;;;;29.08;19.13;;;;;;;;;;4959342;28;20074;-94
2022/03/03 11:23:17;;;;;;;27.50;19.45;;;;;;;;;;4958453;28;20049;-94
2022/03/03 11:25:47;;;;;;;27.73;19.48;;;;;;;;;;4960100;28;20512;-93
2022/03/03 11:28:18;;;;;;;26.80;19.92;;;;;;;;;;4959104;28;20039;-95
2022/03/03 11:30:48;;;;;;;29.98;20.80;;;;;;;;;;4945143;28;20038;-95
2022/03/03 11:33:17;;;;;;;33.50;19.27;;;;;;;;;;4978567;28;20047;-95
2022/03/03 11:35:48;;;;;;;29.42;19.70;;;;;;;;;;4979358;28;20038;-92
2022/03/03 11:38:14;;;;;;;24.88;16.92;;;;;;;;;;4963246;28;20041;-95
2022/03/03 11:40:57;;;;;;;24.80;18.02;;;;;;;;;;4949767;28;20098;-94
2022/03/03 11:43:24;;;;;;;27.17;18.17;;;;;;;;;;4962803;28;20051;-96
2022/03/03 11:45:51;;;;;;;24.77;17.92;;;;;;;;;;4962864;28;20442;-93
2022/03/03 11:48:22;;;;;;;28.83;19.92;;;;;;;;;;4961213;28;20042;-95
2022/03/03 11:50:49;;;;;;;26.50;19.33;;;;;;;;;;4945735;28;20050;-94
2022/03/03 11:53:20;;;;;;;25.15;17.30;;;;;;;;;;4944946;28;20109;-92
2022/03/03 11:55:49;;;;;;;26.33;18.25;;;;;;;;;;4961971;28;20450;-93
2022/03/03 11:58:24;;;;;;;25.42;18.48;;;;;;;;;;4945321;28;20089;-93
2022/03/03 12:01:01;;;;;;;22.38;15.63;;;;;;;;;;4935779;29;20067;-91
2022/03/03 12:03:28;;;;;;;22.27;16.15;;;;;;;;;;4925867;29;20514;-93
2022/03/03 12:06:12;;;;;;;23.77;17.15;;;;;;;;;;4925550;29;20152;-91
2022/03/03 12:08:39;;;;;;;25.95;17.15;;;;;;;;;;4941950;29;20070;-93
2022/03/03 12:11:09;;;;;;;26.42;18.67;;;;;;;;;;4941571;29;20050;-95
2022/03/03 12:13:43;;;;;;;25.05;17.17;;;;;;;;;;4964861;28;20066;-93
2022/03/03 12:16:18;;;;;;;23.63;16.40;;;;;;;;;;4976282;28;20050;-94
2022/03/03 12:18:48;;;;;;;22.40;16.25;;;;;;;;;;4993284;28;20042;-94
2022/03/03 12:21:23;;;;;;;24.23;16.25;;;;;;;;;;4981004;28;20089;-96
2022/03/03 12:23:49;;;;;;;24.98;16.45;;;;;;;;;;4996290;28;20042;-92
2022/03/03 12:26:15;;;;;;;22.88;16.63;;;;;;;;;;4963856;28;20046;-92
2022/03/03 12:28:47;;;;;;;22.77;15.68;;;;;;;;;;4979397;28;20113;-92
2022/03/03 12:31:24;;;;;;;28.05;16.85;;;;;;;;;;4995861;28;20057;-91
2022/03/03 12:34:19;;;;;;;22.13;15.80;;;;;;;;;;4995917;28;20601;-93
2022/03/03 12:36:45;;;;;;;21.23;14.20;;;;;;;;;;4978080;28;20105;-93
2022/03/03 12:39:12;;;;;;;22.58;15.77;;;;;;;;;;5003045;28;20429;-94
2022/03/03 12:41:40;;;;;;;21.00;15.70;;;;;;;;;;4995865;28;20577;-94
2022/03/03 12:44:13;;;;;;;21.17;14.30;;;;;;;;;;4996130;28;20386;-91
2022/03/03 12:46:40;;;;;;;19.08;12.88;;;;;;;;;;4995827;28;20038;-91
2022/03/03 12:49:08;;;;;;;20.63;14.00;;;;;;;;;;4979496;28;20563;-92
2022/03/03 12:51:34;;;;;;;21.83;14.88;;;;;;;;;;4996048;28;20486;-91
2022/03/03 12:54:06;;;;;;;21.50;14.15;;;;;;;;;;4995879;28;20505;-89
2022/03/03 12:56:33;;;;;;;22.35;15.55;;;;;;;;;;4992201;28;20048;-89
2022/03/03 12:59:01;;;;;;;19.60;13.68;;;;;;;;;;5015731;28;20046;-88
2022/03/03 13:01:27;;;;;;;24.35;15.25;;;;;;;;;;4991998;28;20046;-90
2022/03/03 13:03:54;;;;;;;21.65;14.80;;;;;;;;;;4995561;28;20118;-91
2022/03/03 13:06:20;;;;;;;19.38;14.75;;;;;;;;;;4995711;28;20045;-91
2022/03/03 13:08:47;;;;;;;22.70;15.13;;;;;;;;;;4979038;28;20038;-91
2022/03/03 13:11:17;;;;;;;23.85;16.48;;;;;;;;;;4979441;28;20125;-92
2022/03/03 13:13:47;;;;;;;20.92;14.52;;;;;;;;;;4980750;28;20054;-92
2022/03/03 13:16:18;;;;;;;20.23;14.10;;;;;;;;;;4996348;28;20504;-93
2022/03/03 13:18:44;;;;;;;23.67;14.55;;;;;;;;;;4996378;28;20038;-92
2022/03/03 13:21:11;;;;;;;19.52;13.65;;;;;;;;;;4979249;28;20494;-91
2022/03/03 13:23:39;;;;;;;21.55;14.73;;;;;;;;;;4996576;28;20038;-92
2022/03/03 13:26:10;;;;;;;22.42;15.00;;;;;;;;;;4995336;28;20042;-91
2022/03/03 13:28:47;;;;;;;21.80;14.65;;;;;;;;;;4995688;28;20065;-93
2022/03/03 13:31:14;;;;;;;20.70;14.60;;;;;;;;;;4995754;28;20114;-92
2022/03/03 13:33:52;;;;;;;18.83;13.23;;;;;;;;;;4995063;28;20123;-92
2022/03/03 13:36:29;;;;;;;20.50;13.50;;;;;;;;;;4995534;28;20038;-92
2022/03/03 13:38:58;;;;;;;22.05;14.27;;;;;;;;;;4978541;28;20112;-90
2022/03/03 13:41:27;;;;;;;22.30;15.32;;;;;;;;;;4995063;28;20042;-90
2022/03/03 13:44:12;;;;;;;20.65;13.50;;;;;;;;;;4995370;28;20061;-91
2022/03/03 13:46:38;;;;;;;21.25;14.75;;;;;;;;;;4994944;28;20093;-91
2022/03/03 13:49:05;;;;;;;23.10;14.85;;;;;;;;;;4994100;28;20121;-90
2022/03/03 13:51:31;;;;;;;21.27;14.25;;;;;;;;;;4994836;28;20046;-91
2022/03/03 13:53:58;;;;;;;23.25;15.55;;;;;;;;;;4994662;28;20130;-92
2022/03/03 13:56:31;;;;;;;22.52;15.13;;;;;;;;;;4994415;28;20042;-91
2022/03/03 13:59:04;;;;;;;23.10;16.27;;;;;;;;;;4994373;28;20038;-91
2022/03/03 14:01:33;;;;;;;20.17;14.30;;;;;;;;;;4993259;28;20056;-90
2022/03/03 14:04:08;;;;;;;22.00;14.88;;;;;;;;;;4994335;28;20042;-91
2022/03/03 14:06:38;;;;;;;23.23;15.73;;;;;;;;;;4994307;28;20038;-91
2022/03/03 14:09:04;;;;;;;22.50;15.57;;;;;;;;;;4994522;28;20344;-91
2022/03/03 14:11:30;;;;;;;24.00;15.52;;;;;;;;;;4994071;28;20061;-92
2022/03/03 14:13:57;;;;;;;21.17;15.30;;;;;;;;;;4993781;28;20069;-90
2022/03/03 14:16:25;;;;;;;22.48;15.30;;;;;;;;;;4994098;28;20057;-91
2022/03/03 14:18:51;;;;;;;21.55;14.68;;;;;;;;;;4994086;28;20046;-92
2022/03/03 14:21:17;;;;;;;21.67;14.82;;;;;;;;;;4994043;28;20056;-91
2022/03/03 14:23:44;;;;;;;23.50;14.85;;;;;;;;;;4993692;28;20392;-91
2022/03/03 14:26:11;;;;;;;26.13;16.13;;;;;;;;;;4977699;28;20126;-91
2022/03/03 14:28:37;;;;;;;24.40;15.48;;;;;;;;;;4977694;28;20046;-93
2022/03/03 14:31:03;;;;;;;20.75;14.60;;;;;;;;;;4993773;28;20058;-90
2022/03/03 14:33:30;;;;;;;21.33;15.18;;;;;;;;;;4993863;28;20050;-90
2022/03/03 14:35:57;;;;;;;22.38;15.02;;;;;;;;;;4994551;28;20042;-93
2022/03/03 14:38:24;;;;;;;21.73;14.15;;;;;;;;;;4993668;28;20482;-91
2022/03/03 14:40:50;;;;;;;21.40;14.45;;;;;;;;;;4993766;28;20105;-91
2022/03/03 14:43:17;;;;;;;22.85;16.08;;;;;;;;;;4993763;28;20485;-90
2022/03/03 14:45:43;;;;;;;24.23;15.82;;;;;;;;;;4994138;28;20042;-91
2022/03/03 14:48:09;;;;;;;23.98;15.43;;;;;;;;;;4977420;28;20278;-91
2022/03/03 14:50:35;;;;;;;22.77;15.70;;;;;;;;;;4977547;28;20759;-92
2022/03/03 14:53:02;;;;;;;22.83;16.58;;;;;;;;;;4977136;28;20096;-92
2022/03/03 14:55:28;;;;;;;22.27;14.45;;;;;;;;;;4977121;28;20048;-92
2022/03/03 14:57:54;;;;;;;20.45;14.52;;;;;;;;;;4993650;28;20105;-91
2022/03/03 15:00:21;;;;;;;21.90;15.52;;;;;;;;;;4993783;28;20081;-91
2022/03/03 15:02:48;;;;;;;21.80;14.60;;;;;;;;;;4993543;28;20462;-91